地図

経路データ

SID SEASON NUMBER BASIN SUBBASIN NAME ISO_TIME NATURE LAT LON WMO_WIND WMO_PRES WMO_AGENCY TRACK_TYPE DIST2LAND LANDFALL IFLAG USA_AGENCY USA_ATCF_ID USA_LAT USA_LON USA_RECORD USA_STATUS USA_WIND USA_PRES USA_SSHS USA_R34_NE USA_R34_SE USA_R34_SW USA_R34_NW USA_R50_NE USA_R50_SE USA_R50_SW USA_R50_NW USA_R64_NE USA_R64_SE USA_R64_SW USA_R64_NW USA_POCI USA_ROCI USA_RMW USA_EYE TOKYO_LAT TOKYO_LON TOKYO_GRADE TOKYO_WIND TOKYO_PRES TOKYO_R50_DIR TOKYO_R50_LONG TOKYO_R50_SHORT TOKYO_R30_DIR TOKYO_R30_LONG TOKYO_R30_SHORT TOKYO_LAND CMA_LAT CMA_LON CMA_CAT CMA_WIND CMA_PRES HKO_LAT HKO_LON HKO_CAT HKO_WIND HKO_PRES NEWDELHI_LAT NEWDELHI_LON NEWDELHI_GRADE NEWDELHI_WIND NEWDELHI_PRES NEWDELHI_CI NEWDELHI_DP NEWDELHI_POCI REUNION_LAT REUNION_LON REUNION_TYPE REUNION_WIND REUNION_PRES REUNION_TNUM REUNION_CI REUNION_RMW REUNION_R34_NE REUNION_R34_SE REUNION_R34_SW REUNION_R34_NW REUNION_R50_NE REUNION_R50_SE REUNION_R50_SW REUNION_R50_NW REUNION_R64_NE REUNION_R64_SE REUNION_R64_SW REUNION_R64_NW BOM_LAT BOM_LON BOM_TYPE BOM_WIND BOM_PRES BOM_TNUM BOM_CI BOM_RMW BOM_R34_NE BOM_R34_SE BOM_R34_SW BOM_R34_NW BOM_R50_NE BOM_R50_SE BOM_R50_SW BOM_R50_NW BOM_R64_NE BOM_R64_SE BOM_R64_SW BOM_R64_NW BOM_ROCI BOM_POCI BOM_EYE BOM_POS_METHOD BOM_PRES_METHOD NADI_LAT NADI_LON NADI_CAT NADI_WIND NADI_PRES WELLINGTON_LAT WELLINGTON_LON WELLINGTON_WIND WELLINGTON_PRES DS824_LAT DS824_LON DS824_STAGE DS824_WIND DS824_PRES TD9636_LAT TD9636_LON TD9636_STAGE TD9636_WIND TD9636_PRES TD9635_LAT TD9635_LON TD9635_WIND TD9635_PRES TD9635_ROCI NEUMANN_LAT NEUMANN_LON NEUMANN_CLASS NEUMANN_WIND NEUMANN_PRES MLC_LAT MLC_LON MLC_CLASS MLC_WIND MLC_PRES USA_GUST BOM_GUST BOM_GUST_PER REUNION_GUST REUNION_GUST_PER USA_SEAHGT USA_SEARAD_NE USA_SEARAD_SE USA_SEARAD_SW USA_SEARAD_NW STORM_SPEED STORM_DIR
1941229N08150 1941 47 WP MM NOT_NAMED 1941-08-16 12:00:00 NR 7.50000 150.000 main 1113 1111 __________O___ -1 7.50000 150.000 4 20 294
1941229N08150 1941 47 WP MM NOT_NAMED 1941-08-16 15:00:00 NR 7.90046 149.099 main 1136 1134 __________P___ -1 7.90046 149.099 4 19 294
1941229N08150 1941 47 WP MM NOT_NAMED 1941-08-16 18:00:00 NR 8.28992 148.237 main 1168 1167 __________P___ -1 8.28992 148.237 4 18 295
1941229N08150 1941 47 WP MM NOT_NAMED 1941-08-16 21:00:00 NR 8.65932 147.457 main 1210 1210 __________P___ -1 8.65932 147.457 4 16 297
1941229N08150 1941 47 WP MM NOT_NAMED 1941-08-17 00:00:00 NR 9.00000 146.800 main 1243 1243 __________O___ -1 9.00000 146.800 4 13 299
1941229N08150 1941 47 WP MM NOT_NAMED 1941-08-17 03:00:00 NR 9.30826 146.292 main 1277 1277 __________P___ -1 9.30826 146.292 4 11 304
1941229N08150 1941 47 WP MM NOT_NAMED 1941-08-17 06:00:00 NR 9.59858 145.894 main 1313 1313 __________P___ -1 9.59858 145.894 4 9 308
1941229N08150 1941 47 WP MM NOT_NAMED 1941-08-17 09:00:00 NR 9.88970 145.549 main 1350 1350 __________P___ -1 9.88970 145.549 4 9 311
1941229N08150 1941 47 WP MM NOT_NAMED 1941-08-17 12:00:00 NR 10.2000 145.200 main 1386 1386 __________O___ -1 10.2000 145.200 4 11 310
1941229N08150 1941 47 WP MM NOT_NAMED 1941-08-17 15:00:00 NR 10.5658 144.736 main 1438 1438 __________P___ -1 10.5658 144.736 4 12 309
1941229N08150 1941 47 WP MM NOT_NAMED 1941-08-17 18:00:00 NR 10.9503 144.263 main 1489 1489 __________P___ -1 10.9503 144.263 4 12 310
1941229N08150 1941 47 WP MM NOT_NAMED 1941-08-17 21:00:00 NR 11.3346 143.808 main 1533 1533 __________P___ -1 11.3346 143.808 4 11 312
1941229N08150 1941 47 WP MM NOT_NAMED 1941-08-18 00:00:00 NR 11.7000 143.400 main 1586 1586 __________O___ -1 11.7000 143.400 4 10 313
1941229N08150 1941 47 WP MM NOT_NAMED 1941-08-18 03:00:00 NR 12.0091 143.058 main 1617 1613 __________P___ -1 12.0091 143.058 4 9 314
1941229N08150 1941 47 WP MM NOT_NAMED 1941-08-18 06:00:00 NR 12.2996 142.767 main 1638 1634 __________P___ -1 12.2996 142.767 4 8 318
1941229N08150 1941 47 WP MM NOT_NAMED 1941-08-18 09:00:00 NR 12.5904 142.517 main 1660 1660 __________P___ -1 12.5904 142.517 4 8 323
1941229N08150 1941 47 WP MM NOT_NAMED 1941-08-18 12:00:00 NR 12.9000 142.300 main 1686 1686 __________O___ -1 12.9000 142.300 4 8 325
1941229N08150 1941 47 WP MM NOT_NAMED 1941-08-18 15:00:00 NR 13.2088 142.068 main 1711 1706 __________P___ -1 13.2088 142.068 4 8 327
1941229N08150 1941 47 WP MM NOT_NAMED 1941-08-18 18:00:00 NR 13.5450 141.868 main 1733 1733 __________P___ -1 13.5450 141.868 4 8 334
1941229N08150 1941 47 WP MM NOT_NAMED 1941-08-18 21:00:00 NR 13.9338 141.709 main 1757 1752 __________P___ -1 13.9338 141.709 4 9 343
1941229N08150 1941 47 WP MM NOT_NAMED 1941-08-19 00:00:00 NR 14.4000 141.600 main 1756 1749 __________O___ -1 14.4000 141.600 4 11 349
1941229N08150 1941 47 WP MM NOT_NAMED 1941-08-19 03:00:00 NR 14.9748 141.494 main 1757 1754 __________P___ -1 14.9748 141.494 4 12 353
1941229N08150 1941 47 WP MM NOT_NAMED 1941-08-19 06:00:00 NR 15.6247 141.444 main 1758 1758 __________P___ -1 15.6247 141.444 4 13 359
1941229N08150 1941 47 WP MM NOT_NAMED 1941-08-19 09:00:00 NR 16.3122 141.472 main 1784 1784 __________P___ -1 16.3122 141.472 4 14 6
1941229N08150 1941 47 WP MM NOT_NAMED 1941-08-19 12:00:00 NR 17.0000 141.600 main 1813 1813 __________O___ -1 17.0000 141.600 4 14 15
1941229N08150 1941 47 WP MM NOT_NAMED 1941-08-19 15:00:00 NR 17.6583 141.841 main 1853 1802 __________P___ -1 17.6583 141.841 4 14 23
1941229N08150 1941 47 WP MM NOT_NAMED 1941-08-19 18:00:00 NR 18.2885 142.174 main 1802 1750 __________P___ -1 18.2885 142.174 4 14 29
1941229N08150 1941 47 WP MM NOT_NAMED 1941-08-19 21:00:00 NR 18.8994 142.570 main 1754 1708 __________P___ -1 18.8994 142.570 4 14 33
1941229N08150 1941 47 WP MM NOT_NAMED 1941-08-20 00:00:00 NR 19.5000 143.000 main 1708 __________O___ -1 19.5000 143.000 4 15 34

デジタル台風データ・検索

IBTrACS Databaseについて

本データベースは、米国NOAAが公開する1842年以降の世界の熱帯低気圧のベストトラックデータアーカイブInternational Best Track Archive for Climate Stewardship (IBTrACS)を、ウェブで閲覧しやすい形式に変換したものです。

最終更新日:2021-10-21